WXM80 ListenWXM80 Stop

You find our weather info also at:

UK Metoffice

WeatherCloud

Weather Underground

Northeastern Weather Network

AWEKAS

Citizen Weather Observer Program (CWOP)

HAMweather, WeatherForYou, PWS Weather


Weather Underground History page Text

Daily Summary for August 25, 2017 Units:  Both    English   Metric
« Previous Day
Next Day »
Daily Weekly Monthly Yearly Custom
  High: Low: Average:
Temperature: 82.6 °F /  28.1 °C 65.1 °F /  18.4 °C 71.2 °F /  21.8 °C
Dew Point: 65.4 °F /  18.6 °C 56.7 °F /  13.7 °C 59.8 °F /  15.4 °C
Humidity: 84 % 44 % 69 %
Wind Speed: 8.5 mph /  13.7 km/h - 1.6 mph /  2.6 km/h
Wind Gust: 11.5 mph /  18.5 km/h - -
Wind:- - SSE
Pressure: 30.14 in /  1020.5 hPa 29.92 in /  1013.1 hPa -
Precipitation: 0.00 in /  0 mm    
Historical Graphs
 
 
Tabular Data for August 25, 2017
Time Temperature Dew Point Pressure Wind Wind Speed Wind Gust Humidity Rainfall Rate (Hourly)
00:01 67.0 °F /  19.4 °C 59.5 °F /  15.3 °C 29.92 in /  1013.1 hPa North 1.6 mph /  2.6 km/h 4.6 mph /  7.4 km/h 77 % 0.00 in /  0 mm
00:06 67.2 °F /  19.6 °C 59.0 °F /  15 °C 29.92 in /  1013.1 hPa North 2.7 mph /  4.3 km/h 8.0 mph /  12.9 km/h 75 % 0.00 in /  0 mm
00:11 67.3 °F /  19.6 °C 59.1 °F /  15.1 °C 29.92 in /  1013.1 hPa NW 0.2 mph /  0.3 km/h 3.5 mph /  5.6 km/h 75 % 0.00 in /  0 mm
00:16 67.4 °F /  19.7 °C 59.6 °F /  15.3 °C 29.93 in /  1013.4 hPa West 1.1 mph /  1.8 km/h 2.0 mph /  3.2 km/h 76 % 0.00 in /  0 mm
00:21 67.5 °F /  19.7 °C 59.7 °F /  15.4 °C 29.93 in /  1013.4 hPa Calm     76 % 0.00 in /  0 mm
00:26 67.5 °F /  19.7 °C 59.3 °F /  15.2 °C 29.93 in /  1013.4 hPa South 1.0 mph /  1.6 km/h 1.0 mph /  1.6 km/h 75 % 0.00 in /  0 mm
00:32 67.5 °F /  19.7 °C 58.9 °F /  14.9 °C 29.93 in /  1013.4 hPa North 0.8 mph /  1.3 km/h 4.6 mph /  7.4 km/h 74 % 0.00 in /  0 mm
00:37 67.5 °F /  19.7 °C 58.9 °F /  14.9 °C 29.93 in /  1013.4 hPa WNW 1.5 mph /  2.4 km/h 4.6 mph /  7.4 km/h 74 % 0.00 in /  0 mm
00:42 67.4 °F /  19.7 °C 58.8 °F /  14.9 °C 29.93 in /  1013.4 hPa NNE 1.5 mph /  2.4 km/h 6.9 mph /  11.1 km/h 74 % 0.00 in /  0 mm
00:47 67.4 °F /  19.7 °C 58.8 °F /  14.9 °C 29.93 in /  1013.4 hPa North 2.7 mph /  4.3 km/h 5.0 mph /  8 km/h 74 % 0.00 in /  0 mm
00:52 67.3 °F /  19.6 °C 58.7 °F /  14.8 °C 29.93 in /  1013.4 hPa West 1.2 mph /  1.9 km/h 3.5 mph /  5.6 km/h 74 % 0.00 in /  0 mm
00:57 67.3 °F /  19.6 °C 58.7 °F /  14.8 °C 29.94 in /  1013.8 hPa SW 0.5 mph /  0.8 km/h 2.0 mph /  3.2 km/h 74 % 0.00 in /  0 mm
01:02 67.2 °F /  19.6 °C 58.6 °F /  14.8 °C 29.94 in /  1013.8 hPa SW 0.2 mph /  0.3 km/h 2.3 mph /  3.7 km/h 74 % 0.00 in /  0 mm
01:07 67.2 °F /  19.6 °C 59.0 °F /  15 °C 29.94 in /  1013.8 hPa SW 0.3 mph /  0.5 km/h 2.3 mph /  3.7 km/h 75 % 0.00 in /  0 mm
01:12 67.1 °F /  19.5 °C 58.9 °F /  14.9 °C 29.94 in /  1013.8 hPa Calm     75 % 0.00 in /  0 mm
01:17 67.1 °F /  19.5 °C 58.9 °F /  14.9 °C 29.94 in /  1013.8 hPa Calm     75 % 0.00 in /  0 mm
01:22 67.0 °F /  19.4 °C 59.2 °F /  15.1 °C 29.94 in /  1013.8 hPa NNE 0.4 mph /  0.6 km/h 2.3 mph /  3.7 km/h 76 % 0.00 in /  0 mm
01:27 66.8 °F /  19.3 °C 59.0 °F /  15 °C 29.94 in /  1013.8 hPa Calm     76 % 0.00 in /  0 mm
01:32 66.7 °F /  19.3 °C 58.5 °F /  14.7 °C 29.94 in /  1013.8 hPa ENE 0.5 mph /  0.8 km/h 3.5 mph /  5.6 km/h 75 % 0.00 in /  0 mm
01:37 66.7 °F /  19.3 °C 58.9 °F /  14.9 °C 29.94 in /  1013.8 hPa ENE 0.1 mph /  0.2 km/h 1.2 mph /  1.9 km/h 76 % 0.00 in /  0 mm
01:42 66.6 °F /  19.2 °C 58.8 °F /  14.9 °C 29.94 in /  1013.8 hPa NE 0.5 mph /  0.8 km/h 1.2 mph /  1.9 km/h 76 % 0.00 in /  0 mm
01:47 66.5 °F /  19.2 °C 58.7 °F /  14.8 °C 29.94 in /  1013.8 hPa NE 0.2 mph /  0.3 km/h 1.2 mph /  1.9 km/h 76 % 0.00 in /  0 mm
01:52 66.4 °F /  19.1 °C 58.6 °F /  14.8 °C 29.94 in /  1013.8 hPa NNE 0.1 mph /  0.2 km/h 2.3 mph /  3.7 km/h 76 % 0.00 in /  0 mm
01:57 66.3 °F /  19.1 °C 58.5 °F /  14.7 °C 29.94 in /  1013.8 hPa North 1.5 mph /  2.4 km/h 3.5 mph /  5.6 km/h 76 % 0.00 in /  0 mm
02:02 66.1 °F /  18.9 °C 58.3 °F /  14.6 °C 29.94 in /  1013.8 hPa North 2.7 mph /  4.3 km/h 5.8 mph /  9.3 km/h 76 % 0.00 in /  0 mm
02:08 66.0 °F /  18.9 °C 58.2 °F /  14.6 °C 29.94 in /  1013.8 hPa NNE 2.3 mph /  3.7 km/h 4.0 mph /  6.4 km/h 76 % 0.00 in /  0 mm
02:13 65.9 °F /  18.8 °C 58.5 °F /  14.7 °C 29.94 in /  1013.8 hPa NE 2.1 mph /  3.4 km/h 3.5 mph /  5.6 km/h 77 % 0.00 in /  0 mm
02:18 65.9 °F /  18.8 °C 58.5 °F /  14.7 °C 29.94 in /  1013.8 hPa NE 3.5 mph /  5.6 km/h 7.0 mph /  11.3 km/h 77 % 0.00 in /  0 mm
02:23 65.8 °F /  18.8 °C 57.7 °F /  14.3 °C 29.94 in /  1013.8 hPa NE 2.7 mph /  4.3 km/h 6.9 mph /  11.1 km/h 75 % 0.00 in /  0 mm
02:28 65.8 °F /  18.8 °C 57.7 °F /  14.3 °C 29.95 in /  1014.1 hPa NNE 3.6 mph /  5.8 km/h 6.0 mph /  9.7 km/h 75 % 0.00 in /  0 mm
02:33 65.7 °F /  18.7 °C 57.6 °F /  14.2 °C 29.95 in /  1014.1 hPa NNE 2.3 mph /  3.7 km/h 4.6 mph /  7.4 km/h 75 % 0.00 in /  0 mm
02:38 65.8 °F /  18.8 °C 58.0 °F /  14.4 °C 29.95 in /  1014.1 hPa Calm   5.8 mph /  9.3 km/h 76 % 0.00 in /  0 mm
02:43 65.7 °F /  18.7 °C 57.9 °F /  14.4 °C 29.95 in /  1014.1 hPa North 0.5 mph /  0.8 km/h 3.5 mph /  5.6 km/h 76 % 0.00 in /  0 mm
02:48 65.7 °F /  18.7 °C 58.3 °F /  14.6 °C 29.95 in /  1014.1 hPa NNW 0.4 mph /  0.6 km/h 2.0 mph /  3.2 km/h 77 % 0.00 in /  0 mm
02:53 65.7 °F /  18.7 °C 58.3 °F /  14.6 °C 29.95 in /  1014.1 hPa North 2.2 mph /  3.5 km/h 3.5 mph /  5.6 km/h 77 % 0.00 in /  0 mm
02:58 65.6 °F /  18.7 °C 57.8 °F /  14.3 °C 29.95 in /  1014.1 hPa NW 0.7 mph /  1.1 km/h 2.3 mph /  3.7 km/h 76 % 0.00 in /  0 mm
03:03 65.6 °F /  18.7 °C 57.8 °F /  14.3 °C 29.95 in /  1014.1 hPa NNE 2.3 mph /  3.7 km/h 4.6 mph /  7.4 km/h 76 % 0.00 in /  0 mm
03:08 65.6 °F /  18.7 °C 57.8 °F /  14.3 °C 29.96 in /  1014.4 hPa North 2.8 mph /  4.5 km/h 7.0 mph /  11.3 km/h 76 % 0.00 in /  0 mm
03:13 65.7 °F /  18.7 °C 58.3 °F /  14.6 °C 29.96 in /  1014.4 hPa NW 1.2 mph /  1.9 km/h 3.0 mph /  4.8 km/h 77 % 0.00 in /  0 mm
03:18 65.8 °F /  18.8 °C 58.4 °F /  14.7 °C 29.97 in /  1014.8 hPa NNW 3.7 mph /  6 km/h 5.8 mph /  9.3 km/h 77 % 0.00 in /  0 mm
03:23 65.8 °F /  18.8 °C 57.7 °F /  14.3 °C 29.97 in /  1014.8 hPa WNW 1.7 mph /  2.7 km/h 5.8 mph /  9.3 km/h 75 % 0.00 in /  0 mm
03:28 65.8 °F /  18.8 °C 57.7 °F /  14.3 °C 29.97 in /  1014.8 hPa North 1.2 mph /  1.9 km/h 3.5 mph /  5.6 km/h 75 % 0.00 in /  0 mm
03:33 65.9 °F /  18.8 °C 58.5 °F /  14.7 °C 29.97 in /  1014.8 hPa NNE 1.0 mph /  1.6 km/h 4.0 mph /  6.4 km/h 77 % 0.00 in /  0 mm
03:38 65.9 °F /  18.8 °C 57.7 °F /  14.3 °C 29.97 in /  1014.8 hPa NW 2.2 mph /  3.5 km/h 4.6 mph /  7.4 km/h 75 % 0.00 in /  0 mm
03:43 65.9 °F /  18.8 °C 57.7 °F /  14.3 °C 29.97 in /  1014.8 hPa West 3.5 mph /  5.6 km/h 3.5 mph /  5.6 km/h 75 % 0.00 in /  0 mm
03:48 65.9 °F /  18.8 °C 57.7 °F /  14.3 °C 29.97 in /  1014.8 hPa NNE 2.3 mph /  3.7 km/h 8.1 mph /  13 km/h 75 % 0.00 in /  0 mm
03:54 65.9 °F /  18.8 °C 57.7 °F /  14.3 °C 29.97 in /  1014.8 hPa WNW 2.2 mph /  3.5 km/h 3.5 mph /  5.6 km/h 75 % 0.00 in /  0 mm
03:59 65.9 °F /  18.8 °C 58.1 °F /  14.5 °C 29.97 in /  1014.8 hPa NNW 4.1 mph /  6.6 km/h 8.1 mph /  13 km/h 76 % 0.00 in /  0 mm
04:04 66.0 °F /  18.9 °C 57.5 °F /  14.2 °C 29.97 in /  1014.8 hPa NNE 4.3 mph /  6.9 km/h 11.5 mph /  18.5 km/h 74 % 0.00 in /  0 mm
04:09 66.0 °F /  18.9 °C 57.8 °F /  14.3 °C 29.97 in /  1014.8 hPa NNW 4.3 mph /  6.9 km/h 9.0 mph /  14.5 km/h 75 % 0.00 in /  0 mm
04:14 66.0 °F /  18.9 °C 58.6 °F /  14.8 °C 29.97 in /  1014.8 hPa North 4.1 mph /  6.6 km/h 5.8 mph /  9.3 km/h 77 % 0.00 in /  0 mm
04:19 66.0 °F /  18.9 °C 58.2 °F /  14.6 °C 29.97 in /  1014.8 hPa North 6.7 mph /  10.8 km/h 11.5 mph /  18.5 km/h 76 % 0.00 in /  0 mm
04:24 66.0 °F /  18.9 °C 58.6 °F /  14.8 °C 29.97 in /  1014.8 hPa NE 5.9 mph /  9.5 km/h 10.4 mph /  16.7 km/h 77 % 0.00 in /  0 mm
04:29 66.0 °F /  18.9 °C 59.3 °F /  15.2 °C 29.97 in /  1014.8 hPa North 4.1 mph /  6.6 km/h 10.0 mph /  16.1 km/h 79 % 0.00 in /  0 mm
04:34 66.0 °F /  18.9 °C 58.6 °F /  14.8 °C 29.97 in /  1014.8 hPa North 8.5 mph /  13.7 km/h 11.5 mph /  18.5 km/h 77 % 0.00 in /  0 mm
04:39 65.9 °F /  18.8 °C 58.5 °F /  14.7 °C 29.97 in /  1014.8 hPa North 4.2 mph /  6.8 km/h 8.1 mph /  13 km/h 77 % 0.00 in /  0 mm
04:44 65.9 °F /  18.8 °C 58.5 °F /  14.7 °C 29.97 in /  1014.8 hPa NE 3.2 mph /  5.1 km/h 8.1 mph /  13 km/h 77 % 0.00 in /  0 mm
04:49 65.8 °F /  18.8 °C 58.4 °F /  14.7 °C 29.97 in /  1014.8 hPa NNE 3.1 mph /  5 km/h 3.5 mph /  5.6 km/h 77 % 0.00 in /  0 mm
04:54 65.8 °F /  18.8 °C 58.7 °F /  14.8 °C 29.97 in /  1014.8 hPa NNE 3.6 mph /  5.8 km/h 6.9 mph /  11.1 km/h 78 % 0.00 in /  0 mm
04:59 65.8 °F /  18.8 °C 58.7 °F /  14.8 °C 29.97 in /  1014.8 hPa NNE 0.3 mph /  0.5 km/h 2.3 mph /  3.7 km/h 78 % 0.00 in /  0 mm
05:04 65.8 °F /  18.8 °C 58.7 °F /  14.8 °C 29.97 in /  1014.8 hPa North 0.3 mph /  0.5 km/h 2.3 mph /  3.7 km/h 78 % 0.00 in /  0 mm
05:09 65.8 °F /  18.8 °C 58.4 °F /  14.7 °C 29.97 in /  1014.8 hPa Calm   1.2 mph /  1.9 km/h 77 % 0.00 in /  0 mm
05:14 65.8 °F /  18.8 °C 58.4 °F /  14.7 °C 29.97 in /  1014.8 hPa Calm     77 % 0.00 in /  0 mm
05:19 65.7 °F /  18.7 °C 58.7 °F /  14.8 °C 29.97 in /  1014.8 hPa North 0.1 mph /  0.2 km/h 1.2 mph /  1.9 km/h 78 % 0.00 in /  0 mm
05:24 65.7 °F /  18.7 °C 58.3 °F /  14.6 °C 29.97 in /  1014.8 hPa NNW 0.6 mph /  1 km/h 2.3 mph /  3.7 km/h 77 % 0.00 in /  0 mm
05:29 65.6 °F /  18.7 °C 57.8 °F /  14.3 °C 29.97 in /  1014.8 hPa NNW 2.6 mph /  4.2 km/h 4.6 mph /  7.4 km/h 76 % 0.00 in /  0 mm
05:34 65.6 °F /  18.7 °C 58.9 °F /  14.9 °C 29.98 in /  1015.1 hPa North 3.6 mph /  5.8 km/h 6.9 mph /  11.1 km/h 79 % 0.00 in /  0 mm
05:39 65.6 °F /  18.7 °C 59.6 °F /  15.3 °C 29.99 in /  1015.5 hPa North 0.6 mph /  1 km/h 4.6 mph /  7.4 km/h 81 % 0.00 in /  0 mm
05:44 65.7 °F /  18.7 °C 60.1 °F /  15.6 °C 29.99 in /  1015.5 hPa NNE 0.4 mph /  0.6 km/h 2.3 mph /  3.7 km/h 82 % 0.00 in /  0 mm
05:50 65.6 °F /  18.7 °C 59.6 °F /  15.3 °C 29.99 in /  1015.5 hPa NNE 3.1 mph /  5 km/h 4.6 mph /  7.4 km/h 81 % 0.00 in /  0 mm
05:55 65.5 °F /  18.6 °C 59.5 °F /  15.3 °C 29.99 in /  1015.5 hPa North 2.6 mph /  4.2 km/h 4.0 mph /  6.4 km/h 81 % 0.00 in /  0 mm
06:00 65.4 °F /  18.6 °C 59.8 °F /  15.4 °C 29.99 in /  1015.5 hPa NNE 2.7 mph /  4.3 km/h 4.0 mph /  6.4 km/h 82 % 0.00 in /  0 mm
06:05 65.4 °F /  18.6 °C 59.8 °F /  15.4 °C 29.99 in /  1015.5 hPa North 2.3 mph /  3.7 km/h 4.6 mph /  7.4 km/h 82 % 0.00 in /  0 mm
06:10 65.4 °F /  18.6 °C 59.8 °F /  15.4 °C 29.99 in /  1015.5 hPa NE 4.3 mph /  6.9 km/h 6.0 mph /  9.7 km/h 82 % 0.00 in /  0 mm
06:15 65.2 °F /  18.4 °C 59.6 °F /  15.3 °C 30.00 in /  1015.8 hPa NE 2.0 mph /  3.2 km/h 3.5 mph /  5.6 km/h 82 % 0.00 in /  0 mm
06:20 65.2 °F /  18.4 °C 59.9 °F /  15.5 °C 30.00 in /  1015.8 hPa North 3.0 mph /  4.8 km/h 5.0 mph /  8 km/h 83 % 0.00 in /  0 mm
06:25 65.2 °F /  18.4 °C 59.9 °F /  15.5 °C 30.00 in /  1015.8 hPa NE 4.0 mph /  6.4 km/h 7.0 mph /  11.3 km/h 83 % 0.00 in /  0 mm
06:30 65.1 °F /  18.4 °C 59.8 °F /  15.4 °C 30.00 in /  1015.8 hPa NNE 2.7 mph /  4.3 km/h 6.0 mph /  9.7 km/h 83 % 0.00 in /  0 mm
06:35 65.1 °F /  18.4 °C 60.1 °F /  15.6 °C 30.00 in /  1015.8 hPa North 3.7 mph /  6 km/h 6.0 mph /  9.7 km/h 84 % 0.00 in /  0 mm
06:40 65.1 °F /  18.4 °C 59.8 °F /  15.4 °C 30.00 in /  1015.8 hPa North 2.6 mph /  4.2 km/h 7.0 mph /  11.3 km/h 83 % 0.00 in /  0 mm
06:45 65.1 °F /  18.4 °C 59.8 °F /  15.4 °C 30.00 in /  1015.8 hPa North 2.1 mph /  3.4 km/h 4.6 mph /  7.4 km/h 83 % 0.00 in /  0 mm
06:50 65.1 °F /  18.4 °C 59.8 °F /  15.4 °C 30.01 in /  1016.1 hPa NNW 2.0 mph /  3.2 km/h 5.8 mph /  9.3 km/h 83 % 0.00 in /  0 mm
06:55 65.1 °F /  18.4 °C 60.1 °F /  15.6 °C 30.01 in /  1016.1 hPa NNE 1.8 mph /  2.9 km/h 4.0 mph /  6.4 km/h 84 % 0.00 in /  0 mm
07:00 65.1 °F /  18.4 °C 60.1 °F /  15.6 °C 30.01 in /  1016.1 hPa North 3.1 mph /  5 km/h 5.8 mph /  9.3 km/h 84 % 0.00 in /  0 mm
07:05 65.2 °F /  18.4 °C 60.2 °F /  15.7 °C 30.01 in /  1016.1 hPa NNE 3.2 mph /  5.1 km/h 5.8 mph /  9.3 km/h 84 % 0.00 in /  0 mm
07:10 65.2 °F /  18.4 °C 60.2 °F /  15.7 °C 30.01 in /  1016.1 hPa North 4.1 mph /  6.6 km/h 6.9 mph /  11.1 km/h 84 % 0.00 in /  0 mm
07:15 65.2 °F /  18.4 °C 59.9 °F /  15.5 °C 30.01 in /  1016.1 hPa NE 3.8 mph /  6.1 km/h 6.9 mph /  11.1 km/h 83 % 0.00 in /  0 mm
07:20 65.2 °F /  18.4 °C 59.9 °F /  15.5 °C 30.02 in /  1016.5 hPa NNW 4.0 mph /  6.4 km/h 5.0 mph /  8 km/h 83 % 0.00 in /  0 mm
07:26 65.2 °F /  18.4 °C 59.9 °F /  15.5 °C 30.02 in /  1016.5 hPa NNE 5.7 mph /  9.2 km/h 9.2 mph /  14.8 km/h 83 % 0.00 in /  0 mm
07:31 65.2 °F /  18.4 °C 59.9 °F /  15.5 °C 30.01 in /  1016.1 hPa North 5.0 mph /  8 km/h 10.0 mph /  16.1 km/h 83 % 0.00 in /  0 mm
07:36 65.3 °F /  18.5 °C 60.0 °F /  15.6 °C 30.01 in /  1016.1 hPa NNE 6.0 mph /  9.7 km/h 6.0 mph /  9.7 km/h 83 % 0.00 in /  0 mm
07:41 65.3 °F /  18.5 °C 60.3 °F /  15.7 °C 30.01 in /  1016.1 hPa NNE 6.0 mph /  9.7 km/h 9.0 mph /  14.5 km/h 84 % 0.00 in /  0 mm
07:46 65.4 °F /  18.6 °C 60.1 °F /  15.6 °C 30.01 in /  1016.1 hPa North 5.0 mph /  8 km/h 9.0 mph /  14.5 km/h 83 % 0.00 in /  0 mm
07:51 65.5 °F /  18.6 °C 60.5 °F /  15.8 °C 30.02 in /  1016.5 hPa NNE 4.4 mph /  7.1 km/h 6.9 mph /  11.1 km/h 84 % 0.00 in /  0 mm
07:56 65.6 °F /  18.7 °C 60.6 °F /  15.9 °C 30.02 in /  1016.5 hPa NNE 2.6 mph /  4.2 km/h 9.2 mph /  14.8 km/h 84 % 0.00 in /  0 mm
08:01 65.7 °F /  18.7 °C 60.7 °F /  15.9 °C 30.02 in /  1016.5 hPa NNE 4.2 mph /  6.8 km/h 7.0 mph /  11.3 km/h 84 % 0.00 in /  0 mm
08:06 65.8 °F /  18.8 °C 60.5 °F /  15.8 °C 30.02 in /  1016.5 hPa North 3.7 mph /  6 km/h 5.8 mph /  9.3 km/h 83 % 0.00 in /  0 mm
08:11 65.8 °F /  18.8 °C 60.5 °F /  15.8 °C 30.02 in /  1016.5 hPa North 6.0 mph /  9.7 km/h 9.0 mph /  14.5 km/h 83 % 0.00 in /  0 mm
08:16 65.9 °F /  18.8 °C 60.6 °F /  15.9 °C 30.03 in /  1016.8 hPa North 3.0 mph /  4.8 km/h 8.0 mph /  12.9 km/h 83 % 0.00 in /  0 mm
08:21 66.0 °F /  18.9 °C 60.7 °F /  15.9 °C 30.02 in /  1016.5 hPa North 2.0 mph /  3.2 km/h 9.0 mph /  14.5 km/h 83 % 0.00 in /  0 mm
08:26 66.1 °F /  18.9 °C 60.8 °F /  16 °C 30.03 in /  1016.8 hPa North 5.0 mph /  8 km/h 10.0 mph /  16.1 km/h 83 % 0.00 in /  0 mm
08:31 66.1 °F /  18.9 °C 60.8 °F /  16 °C 30.03 in /  1016.8 hPa North 5.0 mph /  8 km/h 8.0 mph /  12.9 km/h 83 % 0.00 in /  0 mm
08:36 66.2 °F /  19 °C 60.9 °F /  16.1 °C 30.03 in /  1016.8 hPa North 3.0 mph /  4.8 km/h 7.0 mph /  11.3 km/h 83 % 0.00 in /  0 mm
08:41 66.3 °F /  19.1 °C 61.0 °F /  16.1 °C 30.03 in /  1016.8 hPa North 3.0 mph /  4.8 km/h 7.0 mph /  11.3 km/h 83 % 0.00 in /  0 mm
08:46 66.4 °F /  19.1 °C 61.1 °F /  16.2 °C 30.03 in /  1016.8 hPa North 3.0 mph /  4.8 km/h 9.0 mph /  14.5 km/h 83 % 0.00 in /  0 mm
08:51 66.5 °F /  19.2 °C 60.8 °F /  16 °C 30.03 in /  1016.8 hPa NNE 5.4 mph /  8.7 km/h 9.2 mph /  14.8 km/h 82 % 0.00 in /  0 mm
08:56 66.6 °F /  19.2 °C 60.9 °F /  16.1 °C 30.04 in /  1017.2 hPa North 3.0 mph /  4.8 km/h 9.0 mph /  14.5 km/h 82 % 0.00 in /  0 mm
09:01 66.7 °F /  19.3 °C 61.0 °F /  16.1 °C 30.04 in /  1017.2 hPa North 2.3 mph /  3.7 km/h 4.6 mph /  7.4 km/h 82 % 0.00 in /  0 mm
09:06 66.8 °F /  19.3 °C 60.8 °F /  16 °C 30.04 in /  1017.2 hPa North 6.0 mph /  9.7 km/h 9.0 mph /  14.5 km/h 81 % 0.00 in /  0 mm
09:11 66.9 °F /  19.4 °C 60.9 °F /  16.1 °C 30.04 in /  1017.2 hPa North 2.8 mph /  4.5 km/h 6.9 mph /  11.1 km/h 81 % 0.00 in /  0 mm
09:16 67.0 °F /  19.4 °C 60.6 °F /  15.9 °C 30.04 in /  1017.2 hPa North 3.0 mph /  4.8 km/h 7.0 mph /  11.3 km/h 80 % 0.00 in /  0 mm
09:21 67.1 °F /  19.5 °C 60.7 °F /  15.9 °C 30.04 in /  1017.2 hPa North 3.0 mph /  4.8 km/h 8.0 mph /  12.9 km/h 80 % 0.00 in /  0 mm
09:26 67.2 °F /  19.6 °C 60.8 °F /  16 °C 30.04 in /  1017.2 hPa North 2.0 mph /  3.2 km/h 7.0 mph /  11.3 km/h 80 % 0.00 in /  0 mm
09:31 67.4 °F /  19.7 °C 61.0 °F /  16.1 °C 30.04 in /  1017.2 hPa Calm   7.0 mph /  11.3 km/h 80 % 0.00 in /  0 mm
09:36 67.6 °F /  19.8 °C 60.9 °F /  16.1 °C 30.04 in /  1017.2 hPa NNE 2.0 mph /  3.2 km/h 7.0 mph /  11.3 km/h 79 % 0.00 in /  0 mm
09:41 67.8 °F /  19.9 °C 61.0 °F /  16.1 °C 30.04 in /  1017.2 hPa NNE 1.0 mph /  1.6 km/h 7.0 mph /  11.3 km/h 79 % 0.00 in /  0 mm
09:46 68.3 °F /  20.2 °C 61.5 °F /  16.4 °C 30.04 in /  1017.2 hPa NNW 2.5 mph /  4 km/h 4.6 mph /  7.4 km/h 79 % 0.00 in /  0 mm
09:47 68.4 °F /  20.2 °C 61.3 °F /  16.3 °C 30.04 in /  1017.2 hPa NNE 2.6 mph /  4.2 km/h 4.0 mph /  6.4 km/h 78 % 0.00 in /  0 mm
09:52 69.1 °F /  20.6 °C 61.2 °F /  16.2 °C 30.04 in /  1017.2 hPa ENE 2.2 mph /  3.5 km/h 6.9 mph /  11.1 km/h 76 % 0.00 in /  0 mm
09:57 69.9 °F /  21.1 °C 61.2 °F /  16.2 °C 30.04 in /  1017.2 hPa North 4.8 mph /  7.7 km/h 5.0 mph /  8 km/h 74 % 0.00 in /  0 mm
10:02 70.6 °F /  21.4 °C 61.5 °F /  16.4 °C 30.04 in /  1017.2 hPa North 2.8 mph /  4.5 km/h 3.5 mph /  5.6 km/h 73 % 0.00 in /  0 mm
10:07 71.0 °F /  21.7 °C 61.1 °F /  16.2 °C 30.05 in /  1017.5 hPa NNE 1.9 mph /  3.1 km/h 5.8 mph /  9.3 km/h 71 % 0.00 in /  0 mm
10:12 71.3 °F /  21.8 °C 61.8 °F /  16.6 °C 30.04 in /  1017.2 hPa North 1.7 mph /  2.7 km/h 4.0 mph /  6.4 km/h 72 % 0.00 in /  0 mm
10:17 71.4 °F /  21.9 °C 61.5 °F /  16.4 °C 30.05 in /  1017.5 hPa NNE 0.6 mph /  1 km/h 3.5 mph /  5.6 km/h 71 % 0.00 in /  0 mm
10:22 71.4 °F /  21.9 °C 60.7 °F /  15.9 °C 30.05 in /  1017.5 hPa NNE 1.3 mph /  2.1 km/h 4.0 mph /  6.4 km/h 69 % 0.00 in /  0 mm
10:27 71.4 °F /  21.9 °C 61.5 °F /  16.4 °C 30.05 in /  1017.5 hPa NNE 2.2 mph /  3.5 km/h 5.0 mph /  8 km/h 71 % 0.00 in /  0 mm
10:32 71.4 °F /  21.9 °C 61.5 °F /  16.4 °C 30.05 in /  1017.5 hPa NNE 3.6 mph /  5.8 km/h 4.6 mph /  7.4 km/h 71 % 0.00 in /  0 mm
10:38 71.5 °F /  21.9 °C 61.2 °F /  16.2 °C 30.05 in /  1017.5 hPa NE 0.7 mph /  1.1 km/h 3.5 mph /  5.6 km/h 70 % 0.00 in /  0 mm
10:43 71.8 °F /  22.1 °C 61.1 °F /  16.2 °C 30.05 in /  1017.5 hPa ENE 0.8 mph /  1.3 km/h 4.0 mph /  6.4 km/h 69 % 0.00 in /  0 mm
10:48 72.2 °F /  22.3 °C 61.9 °F /  16.6 °C 30.05 in /  1017.5 hPa NE 1.9 mph /  3.1 km/h 4.6 mph /  7.4 km/h 70 % 0.00 in /  0 mm
10:53 72.6 °F /  22.6 °C 62.3 °F /  16.8 °C 30.04 in /  1017.2 hPa NNE 1.7 mph /  2.7 km/h 3.5 mph /  5.6 km/h 70 % 0.00 in /  0 mm
10:58 73.2 °F /  22.9 °C 62.0 °F /  16.7 °C 30.04 in /  1017.2 hPa NNE 2.4 mph /  3.9 km/h 4.6 mph /  7.4 km/h 68 % 0.00 in /  0 mm
11:03 73.7 °F /  23.2 °C 62.1 °F /  16.7 °C 30.05 in /  1017.5 hPa NNE 1.6 mph /  2.6 km/h 3.5 mph /  5.6 km/h 67 % 0.00 in /  0 mm
11:08 74.4 °F /  23.6 °C 62.7 °F /  17.1 °C 30.05 in /  1017.5 hPa NNE 0.1 mph /  0.2 km/h 1.2 mph /  1.9 km/h 67 % 0.00 in /  0 mm
11:13 75.3 °F /  24.1 °C 62.7 °F /  17.1 °C 30.05 in /  1017.5 hPa NNE 0.4 mph /  0.6 km/h 3.5 mph /  5.6 km/h 65 % 0.00 in /  0 mm
11:18 75.9 °F /  24.4 °C 62.4 °F /  16.9 °C 30.05 in /  1017.5 hPa NE 0.4 mph /  0.6 km/h 2.0 mph /  3.2 km/h 63 % 0.00 in /  0 mm
11:23 76.5 °F /  24.7 °C 62.5 °F /  16.9 °C 30.05 in /  1017.5 hPa North 3.2 mph /  5.1 km/h 4.0 mph /  6.4 km/h 62 % 0.00 in /  0 mm
11:28 76.8 °F /  24.9 °C 62.3 °F /  16.8 °C 30.05 in /  1017.5 hPa North 2.4 mph /  3.9 km/h 4.6 mph /  7.4 km/h 61 % 0.00 in /  0 mm
11:33 77.3 °F /  25.2 °C 63.3 °F /  17.4 °C 30.05 in /  1017.5 hPa North 2.1 mph /  3.4 km/h 4.6 mph /  7.4 km/h 62 % 0.00 in /  0 mm
11:38 77.4 °F /  25.2 °C 62.9 °F /  17.2 °C 30.04 in /  1017.2 hPa NNE 1.9 mph /  3.1 km/h 4.6 mph /  7.4 km/h 61 % 0.00 in /  0 mm
11:43 77.9 °F /  25.5 °C 62.9 °F /  17.2 °C 30.05 in /  1017.5 hPa NE 0.9 mph /  1.4 km/h 4.0 mph /  6.4 km/h 60 % 0.00 in /  0 mm
11:48 78.3 °F /  25.7 °C 62.3 °F /  16.8 °C 30.05 in /  1017.5 hPa NNE 2.2 mph /  3.5 km/h 3.5 mph /  5.6 km/h 58 % 0.00 in /  0 mm
11:53 78.7 °F /  25.9 °C 62.7 °F /  17.1 °C 30.05 in /  1017.5 hPa NE 0.5 mph /  0.8 km/h 2.0 mph /  3.2 km/h 58 % 0.00 in /  0 mm
11:58 79.2 °F /  26.2 °C 61.6 °F /  16.4 °C 30.05 in /  1017.5 hPa NE 1.1 mph /  1.8 km/h 3.5 mph /  5.6 km/h 55 % 0.00 in /  0 mm
12:03 79.6 °F /  26.4 °C 62.5 °F /  16.9 °C 30.04 in /  1017.2 hPa NNW 2.4 mph /  3.9 km/h 4.0 mph /  6.4 km/h 56 % 0.00 in /  0 mm
12:08 80.0 °F /  26.7 °C 62.9 °F /  17.2 °C 30.04 in /  1017.2 hPa NNE 1.1 mph /  1.8 km/h 4.0 mph /  6.4 km/h 56 % 0.00 in /  0 mm
12:13 80.4 °F /  26.9 °C 61.7 °F /  16.5 °C 30.05 in /  1017.5 hPa NNW 0.3 mph /  0.5 km/h 1.2 mph /  1.9 km/h 53 % 0.00 in /  0 mm
12:18 80.7 °F /  27.1 °C 62.0 °F /  16.7 °C 30.04 in /  1017.2 hPa North 0.6 mph /  1 km/h 4.0 mph /  6.4 km/h 53 % 0.00 in /  0 mm
12:23 80.9 °F /  27.2 °C 62.2 °F /  16.8 °C 30.05 in /  1017.5 hPa NNE 1.8 mph /  2.9 km/h 3.5 mph /  5.6 km/h 53 % 0.00 in /  0 mm
12:28 81.0 °F /  27.2 °C 60.6 °F /  15.9 °C 30.05 in /  1017.5 hPa NNW 0.7 mph /  1.1 km/h 3.0 mph /  4.8 km/h 50 % 0.00 in /  0 mm
12:33 81.2 °F /  27.3 °C 63.5 °F /  17.5 °C 30.04 in /  1017.2 hPa NNW 2.5 mph /  4 km/h 3.5 mph /  5.6 km/h 55 % 0.00 in /  0 mm
12:38 81.5 °F /  27.5 °C 64.8 °F /  18.2 °C 30.05 in /  1017.5 hPa NW 1.0 mph /  1.6 km/h 3.5 mph /  5.6 km/h 57 % 0.00 in /  0 mm
12:43 81.9 °F /  27.7 °C 62.5 °F /  16.9 °C 30.04 in /  1017.2 hPa WNW 0.1 mph /  0.2 km/h 1.2 mph /  1.9 km/h 52 % 0.00 in /  0 mm
12:48 82.2 °F /  27.9 °C 63.9 °F /  17.7 °C 30.05 in /  1017.5 hPa NNW 0.4 mph /  0.6 km/h 2.3 mph /  3.7 km/h 54 % 0.00 in /  0 mm
12:53 82.3 °F /  27.9 °C 61.2 °F /  16.2 °C 30.04 in /  1017.2 hPa Calm   3.5 mph /  5.6 km/h 49 % 0.00 in /  0 mm
12:58 82.4 °F /  28 °C 62.5 °F /  16.9 °C 30.04 in /  1017.2 hPa WNW 1.7 mph /  2.7 km/h 3.5 mph /  5.6 km/h 51 % 0.00 in /  0 mm
13:03 82.1 °F /  27.8 °C 60.5 °F /  15.8 °C 30.04 in /  1017.2 hPa Calm   3.5 mph /  5.6 km/h 48 % 0.00 in /  0 mm
13:09 82.2 °F /  27.9 °C 63.4 °F /  17.4 °C 30.04 in /  1017.2 hPa NNW 1.4 mph /  2.3 km/h 3.5 mph /  5.6 km/h 53 % 0.00 in /  0 mm
13:14 82.1 °F /  27.8 °C 62.7 °F /  17.1 °C 30.04 in /  1017.2 hPa WNW 2.4 mph /  3.9 km/h 4.6 mph /  7.4 km/h 52 % 0.00 in /  0 mm
13:19 82.1 °F /  27.8 °C 62.7 °F /  17.1 °C 30.04 in /  1017.2 hPa NW 0.8 mph /  1.3 km/h 4.6 mph /  7.4 km/h 52 % 0.00 in /  0 mm
13:24 82.2 °F /  27.9 °C 65.4 °F /  18.6 °C 30.04 in /  1017.2 hPa NNW 0.2 mph /  0.3 km/h 2.3 mph /  3.7 km/h 57 % 0.00 in /  0 mm
13:29 82.3 °F /  27.9 °C 62.9 °F /  17.2 °C 30.04 in /  1017.2 hPa SW 1.0 mph /  1.6 km/h 3.5 mph /  5.6 km/h 52 % 0.00 in /  0 mm
13:34 82.2 °F /  27.9 °C 61.1 °F /  16.2 °C 30.04 in /  1017.2 hPa SW 1.2 mph /  1.9 km/h 3.5 mph /  5.6 km/h 49 % 0.00 in /  0 mm
13:39 82.1 °F /  27.8 °C 62.7 °F /  17.1 °C 30.04 in /  1017.2 hPa SW 1.1 mph /  1.8 km/h 3.0 mph /  4.8 km/h 52 % 0.00 in /  0 mm
13:44 82.4 °F /  28 °C 64.6 °F /  18.1 °C 30.04 in /  1017.2 hPa WSW 0.2 mph /  0.3 km/h 2.0 mph /  3.2 km/h 55 % 0.00 in /  0 mm
13:49 82.6 °F /  28.1 °C 63.2 °F /  17.3 °C 30.04 in /  1017.2 hPa WNW 0.9 mph /  1.4 km/h 3.5 mph /  5.6 km/h 52 % 0.00 in /  0 mm
13:54 82.6 °F /  28.1 °C 61.5 °F /  16.4 °C 30.04 in /  1017.2 hPa WSW 1.4 mph /  2.3 km/h 3.5 mph /  5.6 km/h 49 % 0.00 in /  0 mm
13:59 82.5 °F /  28.1 °C 61.4 °F /  16.3 °C 30.04 in /  1017.2 hPa West 2.4 mph /  3.9 km/h 6.0 mph /  9.7 km/h 49 % 0.00 in /  0 mm
14:04 82.4 °F /  28 °C 61.9 °F /  16.6 °C 30.04 in /  1017.2 hPa WSW 2.0 mph /  3.2 km/h 5.0 mph /  8 km/h 50 % 0.00 in /  0 mm
14:09 82.3 °F /  27.9 °C 61.2 °F /  16.2 °C 30.04 in /  1017.2 hPa West 0.7 mph /  1.1 km/h 5.8 mph /  9.3 km/h 49 % 0.00 in /  0 mm
14:14 82.2 °F /  27.9 °C 61.7 °F /  16.5 °C 30.04 in /  1017.2 hPa West 1.6 mph /  2.6 km/h 3.5 mph /  5.6 km/h 50 % 0.00 in /  0 mm
14:19 82.3 °F /  27.9 °C 61.2 °F /  16.2 °C 30.04 in /  1017.2 hPa WSW 2.9 mph /  4.7 km/h 4.6 mph /  7.4 km/h 49 % 0.00 in /  0 mm
14:24 82.3 °F /  27.9 °C 59.4 °F /  15.2 °C 30.04 in /  1017.2 hPa WSW 3.4 mph /  5.5 km/h 4.0 mph /  6.4 km/h 46 % 0.00 in /  0 mm
14:29 82.3 °F /  27.9 °C 60.6 °F /  15.9 °C 30.04 in /  1017.2 hPa WSW 3.5 mph /  5.6 km/h 5.8 mph /  9.3 km/h 48 % 0.00 in /  0 mm
14:34 82.3 °F /  27.9 °C 62.9 °F /  17.2 °C 30.04 in /  1017.2 hPa WSW 2.4 mph /  3.9 km/h 4.6 mph /  7.4 km/h 52 % 0.00 in /  0 mm
14:39 82.2 °F /  27.9 °C 59.4 °F /  15.2 °C 30.04 in /  1017.2 hPa West 1.4 mph /  2.3 km/h 2.3 mph /  3.7 km/h 46 % 0.00 in /  0 mm
14:44 82.3 °F /  27.9 °C 61.8 °F /  16.6 °C 30.03 in /  1016.8 hPa SW 3.2 mph /  5.1 km/h 6.0 mph /  9.7 km/h 50 % 0.00 in /  0 mm
14:49 82.3 °F /  27.9 °C 60.1 °F /  15.6 °C 30.04 in /  1017.2 hPa West 3.5 mph /  5.6 km/h 5.8 mph /  9.3 km/h 47 % 0.00 in /  0 mm
14:54 82.2 °F /  27.9 °C 61.1 °F /  16.2 °C 30.03 in /  1016.8 hPa SW 3.5 mph /  5.6 km/h 4.0 mph /  6.4 km/h 49 % 0.00 in /  0 mm
14:59 82.2 °F /  27.9 °C 62.8 °F /  17.1 °C 30.03 in /  1016.8 hPa WNW 1.1 mph /  1.8 km/h 2.3 mph /  3.7 km/h 52 % 0.00 in /  0 mm
15:04 82.1 °F /  27.8 °C 59.3 °F /  15.2 °C 30.03 in /  1016.8 hPa North 3.0 mph /  4.8 km/h 5.8 mph /  9.3 km/h 46 % 0.00 in /  0 mm
15:09 82.0 °F /  27.8 °C 57.9 °F /  14.4 °C 30.04 in /  1017.2 hPa WNW 2.9 mph /  4.7 km/h 3.5 mph /  5.6 km/h 44 % 0.00 in /  0 mm
15:15 81.9 °F /  27.7 °C 60.3 °F /  15.7 °C 30.03 in /  1016.8 hPa WNW 1.2 mph /  1.9 km/h 3.5 mph /  5.6 km/h 48 % 0.00 in /  0 mm
15:20 81.8 °F /  27.7 °C 59.0 °F /  15 °C 30.04 in /  1017.2 hPa West 1.6 mph /  2.6 km/h 3.5 mph /  5.6 km/h 46 % 0.00 in /  0 mm
15:25 81.4 °F /  27.4 °C 58.6 °F /  14.8 °C 30.04 in /  1017.2 hPa SW 2.0 mph /  3.2 km/h 3.5 mph /  5.6 km/h 46 % 0.00 in /  0 mm
15:30 81.1 °F /  27.3 °C 59.0 °F /  15 °C 30.04 in /  1017.2 hPa WNW 2.8 mph /  4.5 km/h 4.0 mph /  6.4 km/h 47 % 0.00 in /  0 mm
15:35 80.6 °F /  27 °C 57.9 °F /  14.4 °C 30.04 in /  1017.2 hPa WNW 0.2 mph /  0.3 km/h 2.3 mph /  3.7 km/h 46 % 0.00 in /  0 mm
15:40 80.3 °F /  26.8 °C 58.2 °F /  14.6 °C 30.04 in /  1017.2 hPa NW 2.6 mph /  4.2 km/h 5.8 mph /  9.3 km/h 47 % 0.00 in /  0 mm
15:45 80.1 °F /  26.7 °C 57.5 °F /  14.2 °C 30.04 in /  1017.2 hPa North 2.6 mph /  4.2 km/h 5.8 mph /  9.3 km/h 46 % 0.00 in /  0 mm
15:50 80.0 °F /  26.7 °C 58.5 °F /  14.7 °C 30.04 in /  1017.2 hPa NW 1.5 mph /  2.4 km/h 3.5 mph /  5.6 km/h 48 % 0.00 in /  0 mm
15:55 80.0 °F /  26.7 °C 58.5 °F /  14.7 °C 30.04 in /  1017.2 hPa WNW 1.6 mph /  2.6 km/h 4.0 mph /  6.4 km/h 48 % 0.00 in /  0 mm
16:00 80.1 °F /  26.7 °C 58.0 °F /  14.4 °C 30.04 in /  1017.2 hPa NW 1.2 mph /  1.9 km/h 4.6 mph /  7.4 km/h 47 % 0.00 in /  0 mm
16:05 80.3 °F /  26.8 °C 59.4 °F /  15.2 °C 30.04 in /  1017.2 hPa WNW 0.9 mph /  1.4 km/h 2.3 mph /  3.7 km/h 49 % 0.00 in /  0 mm
16:10 80.3 °F /  26.8 °C 58.8 °F /  14.9 °C 30.04 in /  1017.2 hPa West 0.4 mph /  0.6 km/h 3.5 mph /  5.6 km/h 48 % 0.00 in /  0 mm
16:15 80.2 °F /  26.8 °C 58.7 °F /  14.8 °C 30.04 in /  1017.2 hPa WSW 3.7 mph /  6 km/h 5.8 mph /  9.3 km/h 48 % 0.00 in /  0 mm
16:20 79.9 °F /  26.6 °C 58.5 °F /  14.7 °C 30.05 in /  1017.5 hPa SW 1.0 mph /  1.6 km/h 3.5 mph /  5.6 km/h 48 % 0.00 in /  0 mm
16:25 79.5 °F /  26.4 °C 58.1 °F /  14.5 °C 30.05 in /  1017.5 hPa SSW 1.1 mph /  1.8 km/h 4.6 mph /  7.4 km/h 48 % 0.00 in /  0 mm
16:30 79.0 °F /  26.1 °C 58.2 °F /  14.6 °C 30.05 in /  1017.5 hPa WNW 0.2 mph /  0.3 km/h 3.0 mph /  4.8 km/h 49 % 0.00 in /  0 mm
16:35 78.5 °F /  25.8 °C 57.7 °F /  14.3 °C 30.05 in /  1017.5 hPa West 0.1 mph /  0.2 km/h 3.5 mph /  5.6 km/h 49 % 0.00 in /  0 mm
16:40 77.9 °F /  25.5 °C 58.3 °F /  14.6 °C 30.05 in /  1017.5 hPa Calm   1.2 mph /  1.9 km/h 51 % 0.00 in /  0 mm
16:45 77.4 °F /  25.2 °C 57.9 °F /  14.4 °C 30.05 in /  1017.5 hPa WNW 0.8 mph /  1.3 km/h 6.0 mph /  9.7 km/h 51 % 0.00 in /  0 mm
16:50 77.1 °F /  25.1 °C 58.1 °F /  14.5 °C 30.06 in /  1017.8 hPa WNW 0.2 mph /  0.3 km/h 1.2 mph /  1.9 km/h 52 % 0.00 in /  0 mm
16:55 76.7 °F /  24.8 °C 58.8 °F /  14.9 °C 30.05 in /  1017.5 hPa Calm     54 % 0.00 in /  0 mm
17:00 76.5 °F /  24.7 °C 57.6 °F /  14.2 °C 30.06 in /  1017.8 hPa West 1.7 mph /  2.7 km/h 3.5 mph /  5.6 km/h 52 % 0.00 in /  0 mm
17:05 76.2 °F /  24.6 °C 57.8 °F /  14.3 °C 30.06 in /  1017.8 hPa WNW 1.9 mph /  3.1 km/h 4.6 mph /  7.4 km/h 53 % 0.00 in /  0 mm
17:10 76.0 °F /  24.4 °C 58.2 °F /  14.6 °C 30.06 in /  1017.8 hPa WNW 0.7 mph /  1.1 km/h 3.5 mph /  5.6 km/h 54 % 0.00 in /  0 mm
17:15 75.8 °F /  24.3 °C 58.0 °F /  14.4 °C 30.06 in /  1017.8 hPa WNW 1.9 mph /  3.1 km/h 3.5 mph /  5.6 km/h 54 % 0.00 in /  0 mm
17:20 75.7 °F /  24.3 °C 58.4 °F /  14.7 °C 30.06 in /  1017.8 hPa WNW 0.7 mph /  1.1 km/h 3.5 mph /  5.6 km/h 55 % 0.00 in /  0 mm
17:25 75.6 °F /  24.2 °C 58.3 °F /  14.6 °C 30.06 in /  1017.8 hPa WNW 0.4 mph /  0.6 km/h 1.2 mph /  1.9 km/h 55 % 0.00 in /  0 mm
17:30 75.5 °F /  24.2 °C 58.7 °F /  14.8 °C 30.06 in /  1017.8 hPa WNW 0.1 mph /  0.2 km/h 3.5 mph /  5.6 km/h 56 % 0.00 in /  0 mm
17:35 75.4 °F /  24.1 °C 59.6 °F /  15.3 °C 30.06 in /  1017.8 hPa Calm     58 % 0.00 in /  0 mm
17:40 75.3 °F /  24.1 °C 60.5 °F /  15.8 °C 30.06 in /  1017.8 hPa WNW 0.6 mph /  1 km/h 3.5 mph /  5.6 km/h 60 % 0.00 in /  0 mm
17:45 75.2 °F /  24 °C 59.4 °F /  15.2 °C 30.07 in /  1018.2 hPa WNW 0.2 mph /  0.3 km/h 1.2 mph /  1.9 km/h 58 % 0.00 in /  0 mm
17:50 75.1 °F /  23.9 °C 59.8 °F /  15.4 °C 30.07 in /  1018.2 hPa NNW 0.8 mph /  1.3 km/h 3.0 mph /  4.8 km/h 59 % 0.00 in /  0 mm
17:55 75.0 °F /  23.9 °C 58.2 °F /  14.6 °C 30.07 in /  1018.2 hPa NNW 0.4 mph /  0.6 km/h 1.2 mph /  1.9 km/h 56 % 0.00 in /  0 mm
18:00 75.0 °F /  23.9 °C 58.2 °F /  14.6 °C 30.07 in /  1018.2 hPa NNW 0.6 mph /  1 km/h 2.0 mph /  3.2 km/h 56 % 0.00 in /  0 mm
18:05 75.0 °F /  23.9 °C 57.7 °F /  14.3 °C 30.07 in /  1018.2 hPa NNW 0.8 mph /  1.3 km/h 3.5 mph /  5.6 km/h 55 % 0.00 in /  0 mm
18:10 74.9 °F /  23.8 °C 57.6 °F /  14.2 °C 30.07 in /  1018.2 hPa NNW 0.8 mph /  1.3 km/h 2.3 mph /  3.7 km/h 55 % 0.00 in /  0 mm
18:15 74.9 °F /  23.8 °C 58.1 °F /  14.5 °C 30.07 in /  1018.2 hPa Calm   1.0 mph /  1.6 km/h 56 % 0.00 in /  0 mm
18:20 74.8 °F /  23.8 °C 57.5 °F /  14.2 °C 30.07 in /  1018.2 hPa NNW 2.9 mph /  4.7 km/h 4.0 mph /  6.4 km/h 55 % 0.00 in /  0 mm
18:25 74.8 °F /  23.8 °C 58.1 °F /  14.5 °C 30.07 in /  1018.2 hPa NNW 0.1 mph /  0.2 km/h 1.2 mph /  1.9 km/h 56 % 0.00 in /  0 mm
18:31 74.7 °F /  23.7 °C 58.0 °F /  14.4 °C 30.07 in /  1018.2 hPa NNW 1.2 mph /  1.9 km/h 2.0 mph /  3.2 km/h 56 % 0.00 in /  0 mm
18:36 74.6 °F /  23.7 °C 57.4 °F /  14.1 °C 30.07 in /  1018.2 hPa Calm   3.0 mph /  4.8 km/h 55 % 0.00 in /  0 mm
18:40 74.4 °F /  23.6 °C 56.7 °F /  13.7 °C 30.07 in /  1018.2 hPa NNW 0.4 mph /  0.6 km/h 3.0 mph /  4.8 km/h 54 % 0.00 in /  0 mm
18:45 74.3 °F /  23.5 °C 57.6 °F /  14.2 °C 30.07 in /  1018.2 hPa Calm     56 % 0.00 in /  0 mm
18:50 74.2 °F /  23.4 °C 57.5 °F /  14.2 °C 30.07 in /  1018.2 hPa Calm     56 % 0.00 in /  0 mm
18:55 74.0 °F /  23.3 °C 57.8 °F /  14.3 °C 30.07 in /  1018.2 hPa Calm     57 % 0.00 in /  0 mm
19:01 73.9 °F /  23.3 °C 57.7 °F /  14.3 °C 30.07 in /  1018.2 hPa Calm     57 % 0.00 in /  0 mm
19:06 73.7 °F /  23.2 °C 57.5 °F /  14.2 °C 30.07 in /  1018.2 hPa Calm   1.2 mph /  1.9 km/h 57 % 0.00 in /  0 mm
19:11 73.6 °F /  23.1 °C 57.9 °F /  14.4 °C 30.08 in /  1018.5 hPa Calm   1.2 mph /  1.9 km/h 58 % 0.00 in /  0 mm
19:16 73.3 °F /  22.9 °C 57.6 °F /  14.2 °C 30.08 in /  1018.5 hPa Calm   1.0 mph /  1.6 km/h 58 % 0.00 in /  0 mm
19:21 73.2 °F /  22.9 °C 57.5 °F /  14.2 °C 30.08 in /  1018.5 hPa Calm   2.0 mph /  3.2 km/h 58 % 0.00 in /  0 mm
19:26 73.0 °F /  22.8 °C 57.8 °F /  14.3 °C 30.08 in /  1018.5 hPa Calm     59 % 0.00 in /  0 mm
19:31 72.8 °F /  22.7 °C 57.6 °F /  14.2 °C 30.08 in /  1018.5 hPa Calm     59 % 0.00 in /  0 mm
19:36 72.6 °F /  22.6 °C 58.4 °F /  14.7 °C 30.08 in /  1018.5 hPa Calm     61 % 0.00 in /  0 mm
19:41 72.4 °F /  22.4 °C 59.1 °F /  15.1 °C 30.09 in /  1018.8 hPa Calm     63 % 0.00 in /  0 mm
19:46 72.2 °F /  22.3 °C 59.8 °F /  15.4 °C 30.08 in /  1018.5 hPa Calm     65 % 0.00 in /  0 mm
19:51 72.0 °F /  22.2 °C 60.0 °F /  15.6 °C 30.09 in /  1018.8 hPa Calm     66 % 0.00 in /  0 mm
19:56 71.7 °F /  22.1 °C 59.7 °F /  15.4 °C 30.09 in /  1018.8 hPa Calm     66 % 0.00 in /  0 mm
20:01 71.4 °F /  21.9 °C 59.4 °F /  15.2 °C 30.09 in /  1018.8 hPa Calm     66 % 0.00 in /  0 mm
20:06 71.0 °F /  21.7 °C 59.5 °F /  15.3 °C 30.09 in /  1018.8 hPa Calm     67 % 0.00 in /  0 mm
20:11 70.6 °F /  21.4 °C 59.5 °F /  15.3 °C 30.09 in /  1018.8 hPa Calm     68 % 0.00 in /  0 mm
20:17 70.2 °F /  21.2 °C 59.6 °F /  15.3 °C 30.10 in /  1019.2 hPa Calm     69 % 0.00 in /  0 mm
20:22 69.8 °F /  21 °C 59.6 °F /  15.3 °C 30.10 in /  1019.2 hPa Calm     70 % 0.00 in /  0 mm
20:27 69.5 °F /  20.8 °C 59.7 °F /  15.4 °C 30.10 in /  1019.2 hPa Calm     71 % 0.00 in /  0 mm
20:32 69.1 °F /  20.6 °C 59.3 °F /  15.2 °C 30.11 in /  1019.5 hPa Calm     71 % 0.00 in /  0 mm
20:37 68.8 °F /  20.4 °C 59.0 °F /  15 °C 30.11 in /  1019.5 hPa Calm     71 % 0.00 in /  0 mm
20:42 68.5 °F /  20.3 °C 59.1 °F /  15.1 °C 30.11 in /  1019.5 hPa Calm   1.2 mph /  1.9 km/h 72 % 0.00 in /  0 mm
20:45 68.4 °F /  20.2 °C 59.0 °F /  15 °C 30.11 in /  1019.5 hPa Calm     72 % 0.00 in /  0 mm
20:50 68.2 °F /  20.1 °C 58.8 °F /  14.9 °C 30.11 in /  1019.5 hPa Calm   1.2 mph /  1.9 km/h 72 % 0.00 in /  0 mm
20:55 68.0 °F /  20 °C 59.0 °F /  15 °C 30.11 in /  1019.5 hPa Calm     73 % 0.00 in /  0 mm
21:00 67.8 °F /  19.9 °C 59.2 °F /  15.1 °C 30.11 in /  1019.5 hPa Calm     74 % 0.00 in /  0 mm
21:05 67.6 °F /  19.8 °C 59.0 °F /  15 °C 30.11 in /  1019.5 hPa Calm     74 % 0.00 in /  0 mm
21:10 67.4 °F /  19.7 °C 59.2 °F /  15.1 °C 30.12 in /  1019.9 hPa Calm     75 % 0.00 in /  0 mm
21:15 67.3 °F /  19.6 °C 59.1 °F /  15.1 °C 30.12 in /  1019.9 hPa Calm     75 % 0.00 in /  0 mm
21:20 67.1 °F /  19.5 °C 59.3 °F /  15.2 °C 30.12 in /  1019.9 hPa Calm     76 % 0.00 in /  0 mm
21:25 67.0 °F /  19.4 °C 59.5 °F /  15.3 °C 30.12 in /  1019.9 hPa Calm     77 % 0.00 in /  0 mm
21:31 66.8 °F /  19.3 °C 59.7 °F /  15.4 °C 30.12 in /  1019.9 hPa Calm     78 % 0.00 in /  0 mm
21:36 66.8 °F /  19.3 °C 59.7 °F /  15.4 °C 30.12 in /  1019.9 hPa Calm     78 % 0.00 in /  0 mm
21:41 66.7 °F /  19.3 °C 60.0 °F /  15.6 °C 30.12 in /  1019.9 hPa Calm     79 % 0.00 in /  0 mm
21:46 66.6 °F /  19.2 °C 59.9 °F /  15.5 °C 30.12 in /  1019.9 hPa Calm   1.0 mph /  1.6 km/h 79 % 0.00 in /  0 mm
21:51 66.5 °F /  19.2 °C 60.1 °F /  15.6 °C 30.12 in /  1019.9 hPa Calm   1.0 mph /  1.6 km/h 80 % 0.00 in /  0 mm
21:56 66.5 °F /  19.2 °C 60.1 °F /  15.6 °C 30.12 in /  1019.9 hPa Calm   1.0 mph /  1.6 km/h 80 % 0.00 in /  0 mm
22:01 66.5 °F /  19.2 °C 60.1 °F /  15.6 °C 30.12 in /  1019.9 hPa Calm     80 % 0.00 in /  0 mm
22:06 66.5 °F /  19.2 °C 60.1 °F /  15.6 °C 30.12 in /  1019.9 hPa Calm     80 % 0.00 in /  0 mm
22:11 66.5 °F /  19.2 °C 60.1 °F /  15.6 °C 30.12 in /  1019.9 hPa Calm     80 % 0.00 in /  0 mm
22:16 66.5 °F /  19.2 °C 60.1 °F /  15.6 °C 30.12 in /  1019.9 hPa Calm     80 % 0.00 in /  0 mm
22:21 66.5 °F /  19.2 °C 59.8 °F /  15.4 °C 30.12 in /  1019.9 hPa Calm     79 % 0.00 in /  0 mm
22:26 66.5 °F /  19.2 °C 59.4 °F /  15.2 °C 30.12 in /  1019.9 hPa NNW 0.4 mph /  0.6 km/h 1.2 mph /  1.9 km/h 78 % 0.00 in /  0 mm
22:31 66.5 °F /  19.2 °C 59.4 °F /  15.2 °C 30.12 in /  1019.9 hPa Calm   1.2 mph /  1.9 km/h 78 % 0.00 in /  0 mm
22:36 66.5 °F /  19.2 °C 59.8 °F /  15.4 °C 30.12 in /  1019.9 hPa Calm     79 % 0.00 in /  0 mm
22:41 66.5 °F /  19.2 °C 59.4 °F /  15.2 °C 30.12 in /  1019.9 hPa NNE 2.7 mph /  4.3 km/h 4.0 mph /  6.4 km/h 78 % 0.00 in /  0 mm
22:42 66.5 °F /  19.2 °C 59.4 °F /  15.2 °C 30.12 in /  1019.9 hPa North 2.7 mph /  4.3 km/h 4.6 mph /  7.4 km/h 78 % 0.00 in /  0 mm
22:48 66.6 °F /  19.2 °C 59.5 °F /  15.3 °C 30.13 in /  1020.2 hPa NE 0.1 mph /  0.2 km/h 1.2 mph /  1.9 km/h 78 % 0.00 in /  0 mm
22:53 66.6 °F /  19.2 °C 59.2 °F /  15.1 °C 30.13 in /  1020.2 hPa ENE 1.0 mph /  1.6 km/h 3.5 mph /  5.6 km/h 77 % 0.00 in /  0 mm
22:58 66.7 °F /  19.3 °C 59.3 °F /  15.2 °C 30.13 in /  1020.2 hPa NNE 1.8 mph /  2.9 km/h 3.5 mph /  5.6 km/h 77 % 0.00 in /  0 mm
23:03 66.8 °F /  19.3 °C 59.7 °F /  15.4 °C 30.13 in /  1020.2 hPa Calm   1.2 mph /  1.9 km/h 78 % 0.00 in /  0 mm
23:08 67.0 °F /  19.4 °C 59.9 °F /  15.5 °C 30.13 in /  1020.2 hPa North 2.1 mph /  3.4 km/h 3.5 mph /  5.6 km/h 78 % 0.00 in /  0 mm
23:14 67.1 °F /  19.5 °C 60.0 °F /  15.6 °C 30.13 in /  1020.2 hPa North 0.9 mph /  1.4 km/h 3.0 mph /  4.8 km/h 78 % 0.00 in /  0 mm
23:19 67.3 °F /  19.6 °C 60.2 °F /  15.7 °C 30.13 in /  1020.2 hPa NNE 1.0 mph /  1.6 km/h 3.5 mph /  5.6 km/h 78 % 0.00 in /  0 mm
23:24 67.4 °F /  19.7 °C 60.3 °F /  15.7 °C 30.14 in /  1020.5 hPa North 1.8 mph /  2.9 km/h 3.5 mph /  5.6 km/h 78 % 0.00 in /  0 mm
23:26 67.5 °F /  19.7 °C 60.4 °F /  15.8 °C 30.14 in /  1020.5 hPa North 0.7 mph /  1.1 km/h 2.3 mph /  3.7 km/h 78 % 0.00 in /  0 mm
23:29 67.5 °F /  19.7 °C 60.4 °F /  15.8 °C 30.14 in /  1020.5 hPa North 0.2 mph /  0.3 km/h 2.3 mph /  3.7 km/h 78 % 0.00 in /  0 mm
23:31 67.6 °F /  19.8 °C 60.5 °F /  15.8 °C 30.14 in /  1020.5 hPa NNE 2.5 mph /  4 km/h 3.5 mph /  5.6 km/h 78 % 0.00 in /  0 mm
23:33 67.7 °F /  19.8 °C 60.6 °F /  15.9 °C 30.14 in /  1020.5 hPa NNE 1.5 mph /  2.4 km/h 3.5 mph /  5.6 km/h 78 % 0.00 in /  0 mm
23:38 67.8 °F /  19.9 °C 60.3 °F /  15.7 °C 30.14 in /  1020.5 hPa NNE 0.8 mph /  1.3 km/h 3.0 mph /  4.8 km/h 77 % 0.00 in /  0 mm
23:43 68.0 °F /  20 °C 60.2 °F /  15.7 °C 30.14 in /  1020.5 hPa Calm   1.2 mph /  1.9 km/h 76 % 0.00 in /  0 mm
23:48 68.1 °F /  20.1 °C 60.6 °F /  15.9 °C 30.14 in /  1020.5 hPa NNE 0.3 mph /  0.5 km/h 2.3 mph /  3.7 km/h 77 % 0.00 in /  0 mm
23:53 68.3 °F /  20.2 °C 60.8 °F /  16 °C 30.14 in /  1020.5 hPa NNE 3.2 mph /  5.1 km/h 5.8 mph /  9.3 km/h 77 % 0.00 in /  0 mm
23:59 68.4 °F /  20.2 °C 61.3 °F /  16.3 °C 30.14 in /  1020.5 hPa NNE 2.2 mph /  3.5 km/h 5.8 mph /  9.3 km/h 78 % 0.00 in /  0 mm
Crab Meadow Weather
Compliments of Weather Underground - 3 mb

Script developed by  Jim McMurry - jmcmurry@mwt.net Adapted for the template by  Wim van der Kuil - Leuven-Template.eu

Weather Terms: Severe Thunderstorm Watch - Conditions are favorable for the development of severe thunderstorms in and close to the watch area. These watches are issued for large areas by the Storm Prediction Center in Norman, Oklahoma, and are usually valid for four to six hours.